createdAt,value
2022-12-13T00:00:02.708Z,1018.42
2022-12-13T00:10:02.151Z,1018.49
2022-12-13T00:20:02.798Z,1018.47
2022-12-13T00:30:01.675Z,1018.28
2022-12-13T00:40:01.300Z,1018.21
2022-12-13T00:50:01.548Z,1018.12
2022-12-13T01:00:01.460Z,1018.04
2022-12-13T01:10:01.228Z,1018.15
2022-12-13T01:20:02.544Z,1018.07
2022-12-13T01:30:00.990Z,1018.07
2022-12-13T01:40:01.934Z,1018.02
2022-12-13T01:50:02.378Z,1018.06
2022-12-13T02:00:01.784Z,1017.99
2022-12-13T02:10:03.072Z,1017.91
2022-12-13T02:20:01.642Z,1017.86
2022-12-13T02:30:00.120Z,1017.97
2022-12-13T02:40:01.518Z,1017.88
2022-12-13T02:50:01.313Z,1017.82
2022-12-13T03:00:01.895Z,1017.81
2022-12-13T03:10:01.456Z,1017.78
2022-12-13T03:20:01.484Z,1017.78
2022-12-13T03:30:01.260Z,1017.77
2022-12-13T03:40:01.341Z,1017.71
2022-12-13T03:50:07.628Z,1017.65
2022-12-13T04:00:03.194Z,1017.60
2022-12-13T04:10:01.528Z,1017.55
2022-12-13T04:20:01.727Z,1017.54
2022-12-13T04:30:01.289Z,1017.56
2022-12-13T04:40:01.440Z,1017.57
2022-12-13T04:50:01.993Z,1017.58
2022-12-13T05:00:01.452Z,1017.67
2022-12-13T05:10:01.442Z,1017.57
2022-12-13T05:20:01.921Z,1017.60
2022-12-13T05:30:02.669Z,1017.60
2022-12-13T05:40:01.493Z,1017.54
2022-12-13T05:50:00.119Z,1017.48
2022-12-13T06:00:01.708Z,1017.48
2022-12-13T06:10:09.522Z,1017.51
2022-12-13T06:20:00.159Z,1017.56
2022-12-13T06:30:02.731Z,1017.70
2022-12-13T06:40:01.463Z,1017.80
2022-12-13T06:50:05.179Z,1017.81
2022-12-13T07:00:01.322Z,1017.97
2022-12-13T07:10:00.140Z,1018.01
2022-12-13T07:20:01.572Z,1018.16
2022-12-13T07:30:01.186Z,1018.15
2022-12-13T07:40:03.723Z,1018.21
2022-12-13T07:50:01.926Z,1018.25
2022-12-13T08:00:01.929Z,1018.33
2022-12-13T08:10:03.315Z,1018.36
2022-12-13T08:20:01.520Z,1018.48
2022-12-13T08:30:00.143Z,1018.44
2022-12-13T08:40:01.047Z,1018.51
2022-12-13T08:50:04.299Z,1018.58
2022-12-13T09:00:01.299Z,1018.66
2022-12-13T09:10:06.963Z,1018.67
2022-12-13T09:20:02.415Z,1018.66
2022-12-13T09:30:01.402Z,1018.72
2022-12-13T09:40:15.816Z,1018.68
2022-12-13T09:50:03.873Z,1018.57
2022-12-13T10:00:01.448Z,1018.56
2022-12-13T10:10:01.316Z,1018.55
2022-12-13T10:20:01.352Z,1018.61
2022-12-13T10:30:00.206Z,1018.52
2022-12-13T10:40:01.039Z,1018.46
2022-12-13T10:50:01.346Z,1018.36
2022-12-13T11:00:02.922Z,1018.39
2022-12-13T11:10:04.770Z,1018.33
2022-12-13T11:20:01.119Z,1018.23
2022-12-13T11:30:00.150Z,1018.22
2022-12-13T11:40:02.119Z,1018.17
2022-12-13T12:00:02.128Z,1018.16
2022-12-13T12:10:01.267Z,1018.20
2022-12-13T12:20:01.862Z,1018.28
2022-12-13T12:30:01.362Z,1018.19
2022-12-13T12:40:01.485Z,1018.23
2022-12-13T12:50:01.281Z,1018.13
2022-12-13T13:00:03.221Z,1018.16
2022-12-13T13:10:16.109Z,1018.21
2022-12-13T13:20:12.200Z,1018.26
2022-12-13T13:30:01.448Z,1018.18
2022-12-13T13:40:01.267Z,1018.15
2022-12-13T13:50:03.588Z,1018.23
2022-12-13T14:00:03.437Z,1018.24
2022-12-13T14:10:02.358Z,1018.12
2022-12-13T14:20:01.881Z,1018.06
2022-12-13T14:30:01.596Z,1018.18
2022-12-13T14:40:01.050Z,1018.15
2022-12-13T14:50:01.281Z,1018.20
2022-12-13T15:00:04.143Z,1018.18
2022-12-13T15:10:00.182Z,1018.15
2022-12-13T15:20:01.302Z,1018.16
2022-12-13T15:30:02.829Z,1018.25
2022-12-13T15:40:04.756Z,1018.26
2022-12-13T15:50:01.756Z,1018.33
2022-12-13T16:00:01.157Z,1018.25
2022-12-13T16:10:01.276Z,1018.26
2022-12-13T16:20:07.768Z,1018.19
2022-12-13T16:30:01.093Z,1018.12
2022-12-13T16:40:01.104Z,1018.15
2022-12-13T16:50:01.324Z,1018.18
2022-12-13T17:00:01.051Z,1018.11
2022-12-13T17:10:02.551Z,1018.13
2022-12-13T17:20:01.163Z,1018.16
2022-12-13T17:30:01.477Z,1018.03
2022-12-13T17:40:01.622Z,1017.98
2022-12-13T17:50:01.066Z,1017.92
2022-12-13T18:00:01.324Z,1017.97
2022-12-13T18:10:01.296Z,1017.96
2022-12-13T18:20:01.598Z,1017.92
2022-12-13T18:30:01.377Z,1017.90
2022-12-13T18:40:01.521Z,1017.88
2022-12-13T18:50:01.069Z,1017.90
2022-12-13T19:00:02.172Z,1017.96
2022-12-13T19:10:01.302Z,1017.96
2022-12-13T19:20:01.369Z,1017.98
2022-12-13T19:30:01.285Z,1017.97
2022-12-13T19:40:02.117Z,1017.97
2022-12-13T19:50:01.068Z,1018.04
2022-12-13T20:00:01.492Z,1018.03
2022-12-13T20:10:01.227Z,1018.04
2022-12-13T20:20:01.650Z,1017.94
2022-12-13T20:30:00.176Z,1017.88
2022-12-13T20:40:01.606Z,1017.76
2022-12-13T20:50:00.156Z,1017.79
2022-12-13T21:00:01.921Z,1017.76
2022-12-13T21:10:01.590Z,1017.69
2022-12-13T21:20:01.253Z,1017.59
2022-12-13T21:30:01.531Z,1017.45
2022-12-13T21:40:01.095Z,1017.40
2022-12-13T21:50:01.357Z,1017.32
2022-12-13T22:00:01.598Z,1017.31
2022-12-13T22:10:01.517Z,1017.28
2022-12-13T22:20:01.740Z,1017.18
2022-12-13T22:30:01.090Z,1017.05
2022-12-13T22:40:01.253Z,1016.98
2022-12-13T22:50:02.026Z,1016.83
2022-12-13T23:00:01.767Z,1016.72
2022-12-13T23:10:01.347Z,1016.60
2022-12-13T23:20:01.102Z,1016.55
2022-12-13T23:30:01.369Z,1016.48
2022-12-13T23:40:01.011Z,1016.39
2022-12-13T23:50:01.315Z,1016.35
